Time;durP1;ratioP1;P1;durP2;ratioP2;P2;SDS_P1;SDS_P2;PMS_P1;PMS_P2;Temp;Humidity;BMP_temperature;BMP_pressure;BME280_temperature;BME280_humidity;BME280_pressure;Samples;Min_cycle;Max_cycle;Signal;HPM_P1;HPM_P2
2023/04/12 00:01:44;;;;;;;;;;;;;;;;;;7360671;19;1841;-65
2023/04/12 00:04:13;;;;;;;;;;;;;;;;;;7361594;19;842;-64
2023/04/12 00:06:41;;;;;;;;;;;;;;;;;;7362992;19;813;-64
2023/04/12 00:09:09;;;;;;;;;;;;;;;;;;7361206;19;1340;-63
2023/04/12 00:11:37;;;;;;;;;;;;;;;;;;7363121;19;778;-64
2023/04/12 00:14:06;;;;;;;;;;;;;;;;;;7363821;19;873;-65
2023/04/12 00:16:35;;;;;;;;;;;;;;;;;;7363711;19;825;-62
2023/04/12 00:19:03;;;;;;;;;;;;;;;;;;7361366;19;1834;-63
2023/04/12 00:21:31;;;;;;;;;;;;;;;;;;7364108;19;1850;-64
2023/04/12 00:24:00;;;;;;;;;;;;;;;;;;7369954;19;928;-65
2023/04/12 00:26:28;;;;;;;;;;;;;;;;;;7369565;19;881;-64
2023/04/12 00:28:56;;;;;;;;;;;;;;;;;;7367726;19;1345;-65
2023/04/12 00:31:24;;;;;;;;;;;;;;;;;;7370038;19;866;-62
2023/04/12 00:33:52;;;;;;;;;;;;;;;;;;7369883;19;953;-65
2023/04/12 00:36:20;;;;;;;;;;;;;;;;;;7369455;19;777;-65
2023/04/12 00:38:49;;;;;;;;;;;;;;;;;;7367367;19;1253;-65
2023/04/12 00:41:17;;;;;;;;;;;;;;;;;;7366871;19;1853;-65
2023/04/12 00:43:46;;;;;;;;;;;;;;;;;;7369176;19;826;-65
2023/04/12 00:46:16;;;;;;;;;;;;;;;;;;7368809;19;794;-63
2023/04/12 00:48:46;;;;;;;;;;;;;;;;;;7372954;19;1586;-65
2023/04/12 00:51:16;;;;;;;;;;;;;;;;;;7367790;19;850;-65
2023/04/12 00:53:45;;;;;;;;;;;;;;;;;;7367938;19;775;-65
2023/04/12 00:56:13;;;;;;;;;;;;;;;;;;7367358;19;891;-65
2023/04/12 00:58:41;;;;;;;;;;;;;;;;;;7366580;19;1350;-65
2023/04/12 01:01:09;;;;;;;;;;;;;;;;;;7367232;19;1874;-65
2023/04/12 01:03:41;;;;;;;;;;;;;;;;;;7366049;19;845;-65
2023/04/12 01:06:12;;;;;;;;;;;;;;;;;;7368609;19;753;-65
2023/04/12 01:08:42;;;;;;;;;;;;;;;;;;7366145;19;1404;-65
2023/04/12 01:11:10;;;;;;;;;;;;;;;;;;7367855;19;850;-63
2023/04/12 01:13:38;;;;;;;;;;;;;;;;;;7366705;19;830;-65
2023/04/12 01:16:07;;;;;;;;;;;;;;;;;;7366687;19;827;-64
2023/04/12 01:18:39;;;;;;;;;;;;;;;;;;7367439;19;1336;-65
2023/04/12 01:21:08;;;;;;;;;;;;;;;;;;7365867;19;1862;-65
2023/04/12 01:23:38;;;;;;;;;;;;;;;;;;7366057;19;797;-65
2023/04/12 01:26:06;;;;;;;;;;;;;;;;;;7366181;19;838;-64
2023/04/12 01:28:35;;;;;;;;;;;;;;;;;;7366753;19;1297;-64
2023/04/12 01:31:03;;;;;;;;;;;;;;;;;;7367437;19;862;-65
2023/04/12 01:33:31;;;;;;;;;;;;;;;;;;7366733;19;873;-65
2023/04/12 01:35:59;;;;;;;;;;;;;;;;;;7366023;19;783;-65
2023/04/12 01:38:28;;;;;;;;;;;;;;;;;;7367100;19;1349;-65
2023/04/12 01:40:56;;;;;;;;;;;;;;;;;;7365767;19;1844;-65
2023/04/12 01:43:25;;;;;;;;;;;;;;;;;;7366729;19;819;-65
2023/04/12 01:45:53;;;;;;;;;;;;;;;;;;7366308;19;857;-66
2023/04/12 01:48:21;;;;;;;;;;;;;;;;;;7369357;19;1844;-63
2023/04/12 01:50:49;;;;;;;;;;;;;;;;;;7372089;19;1494;-64
2023/04/12 01:53:17;;;;;;;;;;;;;;;;;;7372311;19;1515;-63
2023/04/12 01:55:47;;;;;;;;;;;;;;;;;;7365647;19;892;-64
2023/04/12 01:58:15;;;;;;;;;;;;;;;;;;7364595;19;1351;-66
2023/04/12 02:00:43;;;;;;;;;;;;;;;;;;7365949;19;1854;-66
2023/04/12 02:03:11;;;;;;;;;;;;;;;;;;7368155;19;799;-65
2023/04/12 02:05:40;;;;;;;;;;;;;;;;;;7366935;19;802;-63
2023/04/12 02:08:08;;;;;;;;;;;;;;;;;;7365874;19;1345;-64
2023/04/12 02:10:39;;;;;;;;;;;;;;;;;;7365767;19;804;-64
2023/04/12 02:13:08;;;;;;;;;;;;;;;;;;7366386;19;754;-66
2023/04/12 02:15:36;;;;;;;;;;;;;;;;;;7365209;19;858;-66
2023/04/12 02:18:04;;;;;;;;;;;;;;;;;;7366775;19;1376;-64
2023/04/12 02:20:34;;;;;;;;;;;;;;;;;;7365092;19;1846;-65
2023/04/12 02:23:02;;;;;;;;;;;;;;;;;;7366722;19;798;-65
2023/04/12 02:25:32;;;;;;;;;;;;;;;;;;7367225;19;830;-65
2023/04/12 02:28:00;;;;;;;;;;;;;;;;;;7364558;19;858;-66
2023/04/12 02:30:28;;;;;;;;;;;;;;;;;;7365953;19;798;-65
2023/04/12 02:32:57;;;;;;;;;;;;;;;;;;7365321;19;795;-65
2023/04/12 02:35:30;;;;;;;;;;;;;;;;;;7365799;19;768;-65
2023/04/12 02:38:07;;;;;;;;;;;;;;;;;;7361540;19;1349;-64
2023/04/12 02:40:36;;;;;;;;;;;;;;;;;;7365167;19;1845;-66
2023/04/12 02:43:05;;;;;;;;;;;;;;;;;;7363845;19;770;-64
2023/04/12 02:45:33;;;;;;;;;;;;;;;;;;7363550;19;894;-64
2023/04/12 02:48:01;;;;;;;;;;;;;;;;;;7368670;19;1611;-65
2023/04/12 02:50:30;;;;;;;;;;;;;;;;;;7366100;19;803;-65
2023/04/12 02:53:07;;;;;;;;;;;;;;;;;;7365680;19;770;-66
2023/04/12 02:55:36;;;;;;;;;;;;;;;;;;7363820;19;838;-65
2023/04/12 02:58:06;;;;;;;;;;;;;;;;;;7364095;19;1281;-65
2023/04/12 03:00:41;;;;;;;;;;;;;;;;;;7363901;19;1862;-65
2023/04/12 03:03:09;;;;;;;;;;;;;;;;;;7365661;19;809;-64
2023/04/12 03:05:38;;;;;;;;;;;;;;;;;;7364282;19;854;-65
2023/04/12 03:08:06;;;;;;;;;;;;;;;;;;7364183;19;1270;-65
2023/04/12 03:10:41;;;;;;;;;;;;;;;;;;7364318;19;878;-64
2023/04/12 03:13:10;;;;;;;;;;;;;;;;;;7364528;19;801;-65
2023/04/12 03:15:45;;;;;;;;;;;;;;;;;;7364308;19;779;-64
2023/04/12 03:18:14;;;;;;;;;;;;;;;;;;7362393;19;1286;-65
2023/04/12 03:20:48;;;;;;;;;;;;;;;;;;7363562;19;1846;-65
2023/04/12 03:23:18;;;;;;;;;;;;;;;;;;7363876;19;843;-63
2023/04/12 03:25:50;;;;;;;;;;;;;;;;;;7364842;19;786;-64
2023/04/12 03:28:44;;;;;;;;;;;;;;;;;;7362334;19;1289;-65
2023/04/12 03:31:13;;;;;;;;;;;;;;;;;;7363515;19;787;-66
2023/04/12 03:33:43;;;;;;;;;;;;;;;;;;7363520;19;851;-66
2023/04/12 03:36:21;;;;;;;;;;;;;;;;;;7363171;19;776;-65
2023/04/12 03:38:55;;;;;;;;;;;;;;;;;;7361745;19;1277;-65
2023/04/12 03:41:23;;;;;;;;;;;;;;;;;;7362242;19;2198;-65
2023/04/12 03:43:51;;;;;;;;;;;;;;;;;;7364781;19;859;-65
2023/04/12 03:46:20;;;;;;;;;;;;;;;;;;7363378;19;798;-66
2023/04/12 03:48:55;;;;;;;;;;;;;;;;;;7361328;19;1391;-65
2023/04/12 03:51:25;;;;;;;;;;;;;;;;;;7363399;19;867;-65
2023/04/12 03:53:56;;;;;;;;;;;;;;;;;;7362818;19;775;-66
2023/04/12 03:56:24;;;;;;;;;;;;;;;;;;7367883;19;982;-66
2023/04/12 03:58:56;;;;;;;;;;;;;;;;;;7367793;19;1352;-66
2023/04/12 04:01:24;;;;;;;;;;;;;;;;;;7369378;19;1845;-67
2023/04/12 04:03:53;;;;;;;;;;;;;;;;;;7369572;19;875;-66
2023/04/12 04:06:25;;;;;;;;;;;;;;;;;;7369829;19;756;-67
2023/04/12 04:08:56;;;;;;;;;;;;;;;;;;7367434;19;1345;-66
2023/04/12 04:11:25;;;;;;;;;;;;;;;;;;7371118;19;873;-65
2023/04/12 04:13:58;;;;;;;;;;;;;;;;;;7368373;19;772;-66
2023/04/12 04:16:27;;;;;;;;;;;;;;;;;;7370659;19;811;-64
2023/04/12 04:18:55;;;;;;;;;;;;;;;;;;7366557;19;1357;-65
2023/04/12 04:21:25;;;;;;;;;;;;;;;;;;7367756;19;1841;-65
2023/04/12 04:23:57;;;;;;;;;;;;;;;;;;7369227;19;806;-66
2023/04/12 04:26:32;;;;;;;;;;;;;;;;;;7368466;19;796;-65
2023/04/12 04:29:06;;;;;;;;;;;;;;;;;;7366714;19;1313;-65
2023/04/12 04:31:38;;;;;;;;;;;;;;;;;;7367460;19;795;-63
2023/04/12 04:34:08;;;;;;;;;;;;;;;;;;7368022;19;830;-61
2023/04/12 04:36:41;;;;;;;;;;;;;;;;;;7368200;19;796;-63
2023/04/12 04:39:10;;;;;;;;;;;;;;;;;;7366669;19;1293;-63
2023/04/12 04:41:40;;;;;;;;;;;;;;;;;;7367108;19;1853;-63
2023/04/12 04:44:14;;;;;;;;;;;;;;;;;;7368374;19;773;-63
2023/04/12 04:46:50;;;;;;;;;;;;;;;;;;7368357;19;1352;-62
2023/04/12 04:49:18;;;;;;;;;;;;;;;;;;7365642;19;1341;-62
2023/04/12 04:51:46;;;;;;;;;;;;;;;;;;7367551;19;788;-62
2023/04/12 04:54:15;;;;;;;;;;;;;;;;;;7367990;19;830;-62
2023/04/12 04:56:43;;;;;;;;;;;;;;;;;;7367772;19;838;-63
2023/04/12 04:59:16;;;;;;;;;;;;;;;;;;7365660;19;1298;-62
2023/04/12 05:01:44;;;;;;;;;;;;;;;;;;7370232;19;1867;-62
2023/04/12 05:04:12;;;;;;;;;;;;;;;;;;7369018;19;853;-62
2023/04/12 05:06:40;;;;;;;;;;;;;;;;;;7365465;19;1032;-63
2023/04/12 05:09:10;;;;;;;;;;;;;;;;;;7365567;19;1393;-64
2023/04/12 05:11:45;;;;;;;;;;;;;;;;;;7367708;19;789;-63
2023/04/12 05:14:14;;;;;;;;;;;;;;;;;;7367695;19;807;-63
2023/04/12 05:16:42;;;;;;;;;;;;;;;;;;7367279;19;834;-63
2023/04/12 05:19:10;;;;;;;;;;;;;;;;;;7364963;19;1359;-63
2023/04/12 05:21:39;;;;;;;;;;;;;;;;;;7365424;19;1857;-63
2023/04/12 05:24:07;;;;;;;;;;;;;;;;;;7366843;19;815;-63
2023/04/12 05:26:37;;;;;;;;;;;;;;;;;;7366477;19;847;-62
2023/04/12 05:29:11;;;;;;;;;;;;;;;;;;7363723;19;1337;-63
2023/04/12 05:31:39;;;;;;;;;;;;;;;;;;7366541;19;774;-63
2023/04/12 05:34:12;;;;;;;;;;;;;;;;;;7366012;19;836;-62
2023/04/12 05:36:47;;;;;;;;;;;;;;;;;;7366261;19;791;-63
2023/04/12 05:39:15;;;;;;;;;;;;;;;;;;7366733;19;1517;-63
2023/04/12 05:41:43;;;;;;;;;;;;;;;;;;7365408;19;1841;-62
2023/04/12 05:44:12;;;;;;;;;;;;;;;;;;7366539;19;811;-63
2023/04/12 05:46:40;;;;;;;;;;;;;;;;;;7367704;19;1614;-63
2023/04/12 05:49:08;;;;;;;;;;;;;;;;;;7363789;19;1239;-63
2023/04/12 05:51:36;;;;;;;;;;;;;;;;;;7365917;19;802;-64
2023/04/12 05:54:06;;;;;;;;;;;;;;;;;;7367525;19;798;-63
2023/04/12 05:56:36;;;;;;;;;;;;;;;;;;7365969;19;782;-63
2023/04/12 05:59:05;;;;;;;;;;;;;;;;;;7363934;19;1292;-63
2023/04/12 06:01:33;;;;;;;;;;;;;;;;;;7366313;19;1853;-62
2023/04/12 06:04:02;;;;;;;;;;;;;;;;;;7364855;19;817;-63
2023/04/12 06:06:31;;;;;;;;;;;;;;;;;;7364935;19;787;-63
2023/04/12 06:09:01;;;;;;;;;;;;;;;;;;7364914;19;1333;-63
2023/04/12 06:11:30;;;;;;;;;;;;;;;;;;7364910;19;834;-61
2023/04/12 06:13:58;;;;;;;;;;;;;;;;;;7365463;19;795;-63
2023/04/12 06:16:27;;;;;;;;;;;;;;;;;;7368767;19;1748;-63
2023/04/12 06:18:55;;;;;;;;;;;;;;;;;;7362927;19;1317;-64
2023/04/12 06:21:23;;;;;;;;;;;;;;;;;;7366324;19;820;-63
2023/04/12 06:23:51;;;;;;;;;;;;;;;;;;7363968;19;909;-63
2023/04/12 06:26:19;;;;;;;;;;;;;;;;;;7364637;19;766;-61
2023/04/12 06:28:47;;;;;;;;;;;;;;;;;;7362795;19;1258;-61
2023/04/12 06:31:16;;;;;;;;;;;;;;;;;;7364764;19;841;-62
2023/04/12 06:33:44;;;;;;;;;;;;;;;;;;7365912;19;815;-59
2023/04/12 06:36:14;;;;;;;;;;;;;;;;;;7364693;19;846;-59
2023/04/12 06:38:43;;;;;;;;;;;;;;;;;;7365683;19;1845;-56
2023/04/12 06:41:11;;;;;;;;;;;;;;;;;;7370362;19;1921;-59
2023/04/12 06:43:39;;;;;;;;;;;;;;;;;;7363134;19;1845;-59
2023/04/12 06:46:07;;;;;;;;;;;;;;;;;;7368649;19;1763;-57
2023/04/12 06:48:36;;;;;;;;;;;;;;;;;;7366650;19;2090;-60
2023/04/12 06:51:04;;;;;;;;;;;;;;;;;;7368043;19;1845;-58
2023/04/12 06:53:33;;;;;;;;;;;;;;;;;;7367070;19;1648;-59
2023/04/12 06:56:02;;;;;;;;;;;;;;;;;;7369399;19;1797;-60
2023/04/12 06:58:30;;;;;;;;;;;;;;;;;;7367564;19;1278;-59
2023/04/12 07:00:58;;;;;;;;;;;;;;;;;;7369404;19;2029;-57
2023/04/12 07:03:30;;;;;;;;;;;;;;;;;;7367687;19;1849;-57
2023/04/12 07:05:58;;;;;;;;;;;;;;;;;;7367347;19;719;-62
2023/04/12 07:08:26;;;;;;;;;;;;;;;;;;7367537;19;1289;-59
2023/04/12 07:10:55;;;;;;;;;;;;;;;;;;7367396;19;1797;-60
2023/04/12 07:13:23;;;;;;;;;;;;;;;;;;7366517;19;798;-61
2023/04/12 07:15:51;;;;;;;;;;;;;;;;;;7364716;19;718;-62
2023/04/12 07:18:19;;;;;;;;;;;;;;;;;;7365464;19;2140;-58
2023/04/12 07:20:49;;;;;;;;;;;;;;;;;;7363737;19;810;-61
2023/04/12 07:23:17;;;;;;;;;;;;;;;;;;7368369;19;1938;-62
2023/04/12 07:25:45;;;;;;;;;;;;;;;;;;7363120;19;801;-62
2023/04/12 07:28:13;;;;;;;;;;;;;;;;;;7364568;19;1351;-63
2023/04/12 07:30:41;;;;;;;;;;;;;;;;;;7363676;19;849;-60
2023/04/12 07:33:09;;;;;;;;;;;;;;;;;;7368320;19;1915;-61
2023/04/12 07:35:38;;;;;;;;;;;;;;;;;;7366664;19;1796;-61
2023/04/12 07:38:06;;;;;;;;;;;;;;;;;;7368795;19;1719;-62
2023/04/12 07:40:34;;;;;;;;;;;;;;;;;;7366277;19;1785;-62
2023/04/12 07:43:02;;;;;;;;;;;;;;;;;;7363093;19;1853;-63
2023/04/12 07:45:30;;;;;;;;;;;;;;;;;;7364532;19;742;-63
2023/04/12 07:47:58;;;;;;;;;;;;;;;;;;7362975;19;1776;-62
2023/04/12 07:50:26;;;;;;;;;;;;;;;;;;7361862;19;1872;-62
2023/04/12 07:52:55;;;;;;;;;;;;;;;;;;7364782;19;868;-61
2023/04/12 07:55:23;;;;;;;;;;;;;;;;;;7364180;19;814;-57
2023/04/12 07:57:51;;;;;;;;;;;;;;;;;;7363389;19;1874;-63
2023/04/12 08:00:20;;;;;;;;;;;;;;;;;;7363727;19;1774;-62
2023/04/12 08:02:48;;;;;;;;;;;;;;;;;;7363456;19;1842;-62
2023/04/12 08:05:16;;;;;;;;;;;;;;;;;;7364147;19;803;-63
2023/04/12 08:07:44;;;;;;;;;;;;;;;;;;7364015;19;1758;-63
2023/04/12 08:10:12;;;;;;;;;;;;;;;;;;7361247;19;1266;-63
2023/04/12 08:12:41;;;;;;;;;;;;;;;;;;7363885;19;780;-62
2023/04/12 08:15:09;;;;;;;;;;;;;;;;;;7365948;19;1644;-60
2023/04/12 08:17:37;;;;;;;;;;;;;;;;;;7363875;19;1847;-64
2023/04/12 08:20:05;;;;;;;;;;;;;;;;;;7364734;19;1788;-64
2023/04/12 08:22:33;;;;;;;;;;;;;;;;;;7363197;19;1846;-63
2023/04/12 08:25:01;;;;;;;;;;;;;;;;;;7364100;19;833;-63
2023/04/12 08:27:30;;;;;;;;;;;;;;;;;;7362406;19;782;-63
2023/04/12 08:29:58;;;;;;;;;;;;;;;;;;7360204;19;1361;-63
2023/04/12 08:32:26;;;;;;;;;;;;;;;;;;7363125;19;853;-63
2023/04/12 08:34:54;;;;;;;;;;;;;;;;;;7367469;19;2210;-62
2023/04/12 08:37:23;;;;;;;;;;;;;;;;;;7362218;19;877;-63
2023/04/12 08:39:51;;;;;;;;;;;;;;;;;;7358935;19;1286;-62
2023/04/12 08:42:19;;;;;;;;;;;;;;;;;;7364410;19;1849;-63
2023/04/12 08:44:49;;;;;;;;;;;;;;;;;;7372962;19;1913;-62
2023/04/12 08:47:18;;;;;;;;;;;;;;;;;;7372570;19;1615;-60
2023/04/12 08:49:46;;;;;;;;;;;;;;;;;;7369839;19;1751;-59
2023/04/12 08:52:14;;;;;;;;;;;;;;;;;;7369419;19;799;-62
2023/04/12 08:54:42;;;;;;;;;;;;;;;;;;7369447;19;785;-61
2023/04/12 08:57:10;;;;;;;;;;;;;;;;;;7366280;19;1684;-60
2023/04/12 08:59:38;;;;;;;;;;;;;;;;;;7367067;19;1290;-63
2023/04/12 09:02:06;;;;;;;;;;;;;;;;;;7369187;19;850;-63
2023/04/12 09:04:35;;;;;;;;;;;;;;;;;;7368897;19;1842;-59
2023/04/12 09:07:04;;;;;;;;;;;;;;;;;;7369147;19;1830;-62
2023/04/12 09:09:32;;;;;;;;;;;;;;;;;;7366816;19;1325;-62
2023/04/12 09:12:00;;;;;;;;;;;;;;;;;;7370620;19;1805;-63
2023/04/12 09:14:28;;;;;;;;;;;;;;;;;;7371677;19;1809;-62
2023/04/12 09:16:57;;;;;;;;;;;;;;;;;;7368902;19;858;-59
2023/04/12 09:19:25;;;;;;;;;;;;;;;;;;7368312;19;1960;-61
2023/04/12 09:21:53;;;;;;;;;;;;;;;;;;7368422;19;746;-62
2023/04/12 09:24:23;;;;;;;;;;;;;;;;;;7366567;19;1857;-60
2023/04/12 09:26:51;;;;;;;;;;;;;;;;;;7367553;19;873;-63
2023/04/12 09:29:19;;;;;;;;;;;;;;;;;;7367486;19;2041;-62
2023/04/12 09:31:47;;;;;;;;;;;;;;;;;;7367261;19;834;-60
2023/04/12 09:34:15;;;;;;;;;;;;;;;;;;7367393;19;853;-60
2023/04/12 09:36:43;;;;;;;;;;;;;;;;;;7366813;19;871;-63
2023/04/12 09:39:11;;;;;;;;;;;;;;;;;;7368573;19;1664;-58
2023/04/12 09:41:40;;;;;;;;;;;;;;;;;;7366877;19;895;-59
2023/04/12 09:44:08;;;;;;;;;;;;;;;;;;7365532;19;1857;-62
2023/04/12 09:46:36;;;;;;;;;;;;;;;;;;7368729;19;981;-62
2023/04/12 09:49:04;;;;;;;;;;;;;;;;;;7371509;19;1677;-62
2023/04/12 09:51:32;;;;;;;;;;;;;;;;;;7371589;19;1755;-63
2023/04/12 09:54:01;;;;;;;;;;;;;;;;;;7367893;19;857;-62
2023/04/12 09:56:29;;;;;;;;;;;;;;;;;;7372419;19;1785;-63
2023/04/12 09:58:57;;;;;;;;;;;;;;;;;;7370906;19;2055;-62
2023/04/12 10:01:25;;;;;;;;;;;;;;;;;;7371681;19;1768;-62
2023/04/12 10:03:54;;;;;;;;;;;;;;;;;;7369601;19;2048;-63
2023/04/12 10:06:22;;;;;;;;;;;;;;;;;;7370792;19;1766;-62
2023/04/12 10:08:50;;;;;;;;;;;;;;;;;;7369258;19;1668;-62
2023/04/12 10:11:18;;;;;;;;;;;;;;;;;;7366018;19;790;-61
2023/04/12 10:13:47;;;;;;;;;;;;;;;;;;7363831;19;740;-60
2023/04/12 10:16:15;;;;;;;;;;;;;;;;;;7367287;19;834;-62
2023/04/12 10:18:43;;;;;;;;;;;;;;;;;;7365872;19;1380;-61
2023/04/12 10:21:11;;;;;;;;;;;;;;;;;;7366180;19;774;-62
2023/04/12 10:23:39;;;;;;;;;;;;;;;;;;7365105;19;1870;-62
2023/04/12 10:26:07;;;;;;;;;;;;;;;;;;7365421;19;870;-61
2023/04/12 10:28:37;;;;;;;;;;;;;;;;;;7363240;19;1867;-59
2023/04/12 10:31:05;;;;;;;;;;;;;;;;;;7369376;19;1726;-59
2023/04/12 10:33:33;;;;;;;;;;;;;;;;;;7366729;19;1765;-61
2023/04/12 10:36:09;;;;;;;;;;;;;;;;;;7365560;19;2073;-62
2023/04/12 10:38:37;;;;;;;;;;;;;;;;;;7368086;19;1756;-60
2023/04/12 10:41:06;;;;;;;;;;;;;;;;;;7365542;19;853;-61
2023/04/12 10:43:34;;;;;;;;;;;;;;;;;;7364295;19;1854;-61
2023/04/12 10:46:03;;;;;;;;;;;;;;;;;;7364964;19;857;-61
2023/04/12 10:48:32;;;;;;;;;;;;;;;;;;7364502;19;1285;-60
2023/04/12 10:51:00;;;;;;;;;;;;;;;;;;7366529;19;1836;-62
2023/04/12 10:53:28;;;;;;;;;;;;;;;;;;7367271;19;1577;-62
2023/04/12 10:55:56;;;;;;;;;;;;;;;;;;7363199;19;857;-62
2023/04/12 10:58:27;;;;;;;;;;;;;;;;;;7363018;19;1349;-61
2023/04/12 11:00:56;;;;;;;;;;;;;;;;;;7365935;19;782;-60
2023/04/12 11:03:24;;;;;;;;;;;;;;;;;;7370259;19;1830;-61
2023/04/12 11:05:53;;;;;;;;;;;;;;;;;;7363697;19;1007;-61
2023/04/12 11:08:41;;;;;;;;;;;;;;;;;;7363928;19;1583;-60
2023/04/12 11:11:26;;;;;;;;;;;;;;;;;;7364995;19;793;-61
2023/04/12 11:13:54;;;;;;;;;;;;;;;;;;7365240;19;1837;-61
2023/04/12 11:16:22;;;;;;;;;;;;;;;;;;7368726;19;1753;-61
2023/04/12 11:18:50;;;;;;;;;;;;;;;;;;7364035;19;1317;-61
2023/04/12 11:21:18;;;;;;;;;;;;;;;;;;7364871;19;813;-62
2023/04/12 11:23:47;;;;;;;;;;;;;;;;;;7365803;19;1849;-61
2023/04/12 11:26:15;;;;;;;;;;;;;;;;;;7365598;19;1542;-61
2023/04/12 11:28:43;;;;;;;;;;;;;;;;;;7362802;19;1266;-60
2023/04/12 11:31:11;;;;;;;;;;;;;;;;;;7365038;19;1677;-62
2023/04/12 11:33:40;;;;;;;;;;;;;;;;;;7367058;19;1752;-62
2023/04/12 11:36:08;;;;;;;;;;;;;;;;;;7363961;19;801;-59
2023/04/12 11:38:36;;;;;;;;;;;;;;;;;;7364867;19;1751;-59
2023/04/12 11:41:05;;;;;;;;;;;;;;;;;;7363630;19;844;-59
2023/04/12 11:43:33;;;;;;;;;;;;;;;;;;7363011;19;1858;-59
2023/04/12 11:46:02;;;;;;;;;;;;;;;;;;7365657;19;1805;-60
2023/04/12 11:48:30;;;;;;;;;;;;;;;;;;7362720;19;1336;-62
2023/04/12 11:50:58;;;;;;;;;;;;;;;;;;7364123;19;865;-62
2023/04/12 11:53:26;;;;;;;;;;;;;;;;;;7366148;19;1752;-61
2023/04/12 11:55:55;;;;;;;;;;;;;;;;;;7362851;19;803;-62
2023/04/12 11:58:23;;;;;;;;;;;;;;;;;;7364812;19;1847;-63
2023/04/12 12:00:51;;;;;;;;;;;;;;;;;;7365949;19;1820;-62
2023/04/12 12:03:19;;;;;;;;;;;;;;;;;;7364473;19;1852;-63
2023/04/12 12:05:47;;;;;;;;;;;;;;;;;;7362710;19;731;-62
2023/04/12 12:08:16;;;;;;;;;;;;;;;;;;7361859;19;1330;-63
2023/04/12 12:10:44;;;;;;;;;;;;;;;;;;7363684;19;822;-61
2023/04/12 12:13:12;;;;;;;;;;;;;;;;;;7361916;19;861;-62
2023/04/12 12:15:41;;;;;;;;;;;;;;;;;;7366067;19;1699;-62
2023/04/12 12:18:09;;;;;;;;;;;;;;;;;;7368986;19;1270;-64
2023/04/12 12:20:37;;;;;;;;;;;;;;;;;;7369321;19;854;-62
2023/04/12 12:23:05;;;;;;;;;;;;;;;;;;7370753;19;1763;-60
2023/04/12 12:25:34;;;;;;;;;;;;;;;;;;7367379;19;1838;-63
2023/04/12 12:28:04;;;;;;;;;;;;;;;;;;7368380;19;778;-62
2023/04/12 12:30:32;;;;;;;;;;;;;;;;;;7367779;19;1298;-60
2023/04/12 12:33:00;;;;;;;;;;;;;;;;;;7370727;19;1256;-61
2023/04/12 12:35:29;;;;;;;;;;;;;;;;;;7378124;19;1480;-59
2023/04/12 12:37:57;;;;;;;;;;;;;;;;;;7375485;19;1803;-59
2023/04/12 12:40:25;;;;;;;;;;;;;;;;;;7371557;19;1339;-63
2023/04/12 12:42:54;;;;;;;;;;;;;;;;;;7372670;19;870;-64
2023/04/12 12:45:22;;;;;;;;;;;;;;;;;;7370390;19;1818;-63
2023/04/12 12:47:50;;;;;;;;;;;;;;;;;;7372002;19;795;-59
2023/04/12 12:50:19;;;;;;;;;;;;;;;;;;7370277;19;1883;-58
2023/04/12 12:52:47;;;;;;;;;;;;;;;;;;7372800;19;1663;-64
2023/04/12 12:55:15;;;;;;;;;;;;;;;;;;7372376;19;1799;-62
2023/04/12 12:57:44;;;;;;;;;;;;;;;;;;7369908;19;810;-61
2023/04/12 13:00:13;;;;;;;;;;;;;;;;;;7369556;19;1290;-63
2023/04/12 13:02:42;;;;;;;;;;;;;;;;;;7373658;19;2078;-61
2023/04/12 13:05:10;;;;;;;;;;;;;;;;;;7368919;19;1849;-62
2023/04/12 13:07:38;;;;;;;;;;;;;;;;;;7368975;19;836;-64
2023/04/12 13:10:06;;;;;;;;;;;;;;;;;;7368936;19;1231;-63
2023/04/12 13:12:35;;;;;;;;;;;;;;;;;;7370417;19;814;-63
2023/04/12 13:15:03;;;;;;;;;;;;;;;;;;7374069;19;1808;-63
2023/04/12 13:17:31;;;;;;;;;;;;;;;;;;7373449;19;1611;-64
2023/04/12 13:19:59;;;;;;;;;;;;;;;;;;7371261;19;1822;-63
2023/04/12 13:22:27;;;;;;;;;;;;;;;;;;7368595;19;854;-63
2023/04/12 13:24:56;;;;;;;;;;;;;;;;;;7367300;19;1847;-62
2023/04/12 13:27:24;;;;;;;;;;;;;;;;;;7365828;19;923;-63
2023/04/12 13:29:53;;;;;;;;;;;;;;;;;;7366271;19;1685;-63
2023/04/12 13:32:21;;;;;;;;;;;;;;;;;;7373673;19;897;-65
2023/04/12 13:34:49;;;;;;;;;;;;;;;;;;7367936;19;861;-64
2023/04/12 13:37:17;;;;;;;;;;;;;;;;;;7367095;19;767;-61
2023/04/12 13:39:46;;;;;;;;;;;;;;;;;;7365825;19;1360;-62
2023/04/12 13:42:14;;;;;;;;;;;;;;;;;;7369953;19;1885;-63
2023/04/12 13:44:42;;;;;;;;;;;;;;;;;;7367242;19;1853;-60
2023/04/12 13:47:10;;;;;;;;;;;;;;;;;;7368932;19;754;-63
2023/04/12 13:49:38;;;;;;;;;;;;;;;;;;7369697;19;1769;-64
2023/04/12 13:52:06;;;;;;;;;;;;;;;;;;7366823;19;861;-60
2023/04/12 13:54:35;;;;;;;;;;;;;;;;;;7370683;19;1778;-63
2023/04/12 13:57:03;;;;;;;;;;;;;;;;;;7367510;19;912;-60
2023/04/12 13:59:31;;;;;;;;;;;;;;;;;;7365259;19;1329;-61
2023/04/12 14:01:59;;;;;;;;;;;;;;;;;;7366618;19;839;-64
2023/04/12 14:04:27;;;;;;;;;;;;;;;;;;7368269;19;2144;-61
2023/04/12 14:06:56;;;;;;;;;;;;;;;;;;7369263;19;1794;-63
2023/04/12 14:09:24;;;;;;;;;;;;;;;;;;7365940;19;1281;-62
2023/04/12 14:11:54;;;;;;;;;;;;;;;;;;7367001;19;778;-63
2023/04/12 14:14:22;;;;;;;;;;;;;;;;;;7369095;19;1130;-63
2023/04/12 14:16:50;;;;;;;;;;;;;;;;;;7366890;19;861;-61
2023/04/12 14:19:18;;;;;;;;;;;;;;;;;;7368478;19;1771;-59
2023/04/12 14:21:46;;;;;;;;;;;;;;;;;;7366368;19;845;-62
2023/04/12 14:24:14;;;;;;;;;;;;;;;;;;7365565;19;1830;-61
2023/04/12 14:26:44;;;;;;;;;;;;;;;;;;7367841;19;1803;-58
2023/04/12 14:29:12;;;;;;;;;;;;;;;;;;7367381;19;1762;-59
2023/04/12 14:31:40;;;;;;;;;;;;;;;;;;7365904;19;1037;-62
2023/04/12 14:34:09;;;;;;;;;;;;;;;;;;7366053;19;834;-58
2023/04/12 14:36:37;;;;;;;;;;;;;;;;;;7365937;19;830;-60
2023/04/12 14:39:06;;;;;;;;;;;;;;;;;;7362564;19;1285;-62
2023/04/12 14:41:34;;;;;;;;;;;;;;;;;;7367661;19;1783;-57
2023/04/12 14:44:02;;;;;;;;;;;;;;;;;;7365158;19;1865;-56
2023/04/12 14:46:30;;;;;;;;;;;;;;;;;;7369340;19;1897;-56
2023/04/12 14:48:59;;;;;;;;;;;;;;;;;;7367154;19;1826;-56
2023/04/12 14:51:28;;;;;;;;;;;;;;;;;;7366835;19;823;-60
2023/04/12 14:53:56;;;;;;;;;;;;;;;;;;7367684;19;806;-54
2023/04/12 14:56:24;;;;;;;;;;;;;;;;;;7367331;19;2071;-56
2023/04/12 14:58:53;;;;;;;;;;;;;;;;;;7364306;19;1247;-55
2023/04/12 15:01:22;;;;;;;;;;;;;;;;;;7365986;19;876;-62
2023/04/12 15:03:50;;;;;;;;;;;;;;;;;;7367042;19;1800;-55
2023/04/12 15:06:19;;;;;;;;;;;;;;;;;;7361787;19;1860;-61
2023/04/12 15:08:48;;;;;;;;;;;;;;;;;;7367969;19;1782;-61
2023/04/12 15:11:17;;;;;;;;;;;;;;;;;;7368541;19;1790;-61
2023/04/12 15:13:45;;;;;;;;;;;;;;;;;;7364792;19;884;-63
2023/04/12 15:16:14;;;;;;;;;;;;;;;;;;7368897;19;1886;-63
2023/04/12 15:18:42;;;;;;;;;;;;;;;;;;7363922;19;1302;-62
2023/04/12 15:21:10;;;;;;;;;;;;;;;;;;7363510;19;762;-62
2023/04/12 15:23:38;;;;;;;;;;;;;;;;;;7365063;19;836;-62
2023/04/12 15:26:07;;;;;;;;;;;;;;;;;;7361374;19;1843;-62
2023/04/12 15:28:36;;;;;;;;;;;;;;;;;;7362856;19;1360;-63
2023/04/12 15:31:04;;;;;;;;;;;;;;;;;;7365190;19;826;-61
2023/04/12 15:33:33;;;;;;;;;;;;;;;;;;7364156;19;820;-60
2023/04/12 15:36:01;;;;;;;;;;;;;;;;;;7364883;19;908;-63
2023/04/12 15:38:29;;;;;;;;;;;;;;;;;;7364967;19;1708;-62
2023/04/12 15:40:57;;;;;;;;;;;;;;;;;;7368469;19;1425;-62
2023/04/12 15:43:26;;;;;;;;;;;;;;;;;;7363428;19;882;-63
2023/04/12 15:45:54;;;;;;;;;;;;;;;;;;7365536;19;1839;-63
2023/04/12 15:48:22;;;;;;;;;;;;;;;;;;7361548;19;1326;-63
2023/04/12 15:50:50;;;;;;;;;;;;;;;;;;7364879;19;806;-62
2023/04/12 15:53:18;;;;;;;;;;;;;;;;;;7365552;19;1667;-62
2023/04/12 15:55:47;;;;;;;;;;;;;;;;;;7367092;19;1829;-63
2023/04/12 15:58:15;;;;;;;;;;;;;;;;;;7365038;19;2138;-63
2023/04/12 16:00:43;;;;;;;;;;;;;;;;;;7367543;19;1820;-63
2023/04/12 16:03:16;;;;;;;;;;;;;;;;;;7365864;19;1805;-62
2023/04/12 16:05:44;;;;;;;;;;;;;;;;;;7363162;19;1858;-63
2023/04/12 16:08:12;;;;;;;;;;;;;;;;;;7363424;19;1242;-64
2023/04/12 16:10:40;;;;;;;;;;;;;;;;;;7363774;19;830;-64
2023/04/12 16:13:09;;;;;;;;;;;;;;;;;;7363533;19;849;-64
2023/04/12 16:15:37;;;;;;;;;;;;;;;;;;7364263;19;1840;-62
2023/04/12 16:18:05;;;;;;;;;;;;;;;;;;7359617;19;798;-63
2023/04/12 16:20:33;;;;;;;;;;;;;;;;;;7359658;19;1317;-65
2023/04/12 16:23:03;;;;;;;;;;;;;;;;;;7362910;19;890;-63
2023/04/12 16:25:32;;;;;;;;;;;;;;;;;;7362312;19;1846;-63
2023/04/12 16:28:01;;;;;;;;;;;;;;;;;;7361838;19;1738;-63
2023/04/12 16:30:29;;;;;;;;;;;;;;;;;;7362059;19;1329;-63
2023/04/12 16:32:57;;;;;;;;;;;;;;;;;;7365172;19;1762;-63
2023/04/12 16:35:25;;;;;;;;;;;;;;;;;;7366049;19;1772;-62
2023/04/12 16:37:54;;;;;;;;;;;;;;;;;;7361229;19;816;-62
2023/04/12 16:40:23;;;;;;;;;;;;;;;;;;7359810;19;1329;-62
2023/04/12 16:42:51;;;;;;;;;;;;;;;;;;7365325;19;1817;-62
2023/04/12 16:45:20;;;;;;;;;;;;;;;;;;7361471;19;1846;-61
2023/04/12 16:47:48;;;;;;;;;;;;;;;;;;7361265;19;811;-63
2023/04/12 16:50:17;;;;;;;;;;;;;;;;;;7360385;19;1196;-62
2023/04/12 16:52:45;;;;;;;;;;;;;;;;;;7362858;19;809;-62
2023/04/12 16:55:13;;;;;;;;;;;;;;;;;;7362486;19;789;-61
2023/04/12 16:57:41;;;;;;;;;;;;;;;;;;7361352;19;825;-63
2023/04/12 17:00:18;;;;;;;;;;;;;;;;;;7360425;19;1366;-63
2023/04/12 17:02:46;;;;;;;;;;;;;;;;;;7362251;19;813;-63
2023/04/12 17:05:17;;;;;;;;;;;;;;;;;;7369059;19;1833;-61
2023/04/12 17:07:48;;;;;;;;;;;;;;;;;;7368220;19;1240;-63
2023/04/12 17:10:17;;;;;;;;;;;;;;;;;;7366847;19;1336;-62
2023/04/12 17:12:45;;;;;;;;;;;;;;;;;;7368859;19;817;-62
2023/04/12 17:15:14;;;;;;;;;;;;;;;;;;7368395;19;869;-61
2023/04/12 17:17:42;;;;;;;;;;;;;;;;;;7367542;19;853;-62
2023/04/12 17:20:11;;;;;;;;;;;;;;;;;;7366850;19;1331;-62
2023/04/12 17:22:40;;;;;;;;;;;;;;;;;;7368543;19;887;-63